Terminal Aerodrome Forecast
Issued by NWS Sterling, VA

Current Version | Previous Version | Text Only | Print | Product List | Glossary Off
Versions: 1 2 3 4 5 6 7 8 9 10 11 12 13 14 15 16 17 18 19 20 21 22 23 24 25 26

000
FTUS41 KLWX 230540
TAFDCA
TAF
KDCA 230540Z 2306/2406 35005KT 3SM -SHRA BKN015 OVC030
     FM231200 35005KT 3SM BR BKN008 BKN050
     FM231500 35006KT P6SM BKN025 BKN090
     FM231700 36006KT P6SM BKN040 BKN100
     FM231800 36006KT P6SM -SHRA SCT040 BKN050
     FM240000 29005KT P6SM -SHRA SCT070 OVC090=

USA.gov is the U.S. government's official web portal to all federal, state and local government web resources and services.